createdAt,value
2019-04-20T00:00:37.140Z,41.30
2019-04-20T00:02:44.045Z,41.30
2019-04-20T00:04:45.346Z,41.60
2019-04-20T00:06:52.170Z,41.60
2019-04-20T00:09:01.836Z,41.70
2019-04-20T00:11:07.344Z,41.90
2019-04-20T00:13:16.182Z,41.70
2019-04-20T00:15:09.008Z,41.50
2019-04-20T00:17:13.665Z,41.40
2019-04-20T00:19:26.247Z,41.80
2019-04-20T00:21:43.024Z,41.80
2019-04-20T00:23:46.170Z,41.60
2019-04-20T00:26:16.114Z,42.40
2019-04-20T00:28:33.357Z,42.30
2019-04-20T00:30:43.117Z,42.30
2019-04-20T00:32:39.688Z,43.30
2019-04-20T00:34:30.492Z,43.10
2019-04-20T00:36:32.782Z,42.70
2019-04-20T00:38:45.295Z,42.50
2019-04-20T00:40:41.308Z,42.50
2019-04-20T00:42:50.804Z,42.60
2019-04-20T00:44:58.175Z,42.70
2019-04-20T00:47:04.522Z,42.70
2019-04-20T00:49:15.200Z,42.90
2019-04-20T00:51:23.905Z,43.10
2019-04-20T00:53:19.551Z,42.80
2019-04-20T00:55:14.918Z,42.80
2019-04-20T00:57:30.077Z,43.10
2019-04-20T00:59:35.464Z,42.90
2019-04-20T01:01:48.767Z,43.20
2019-04-20T01:03:46.199Z,43.20
2019-04-20T01:06:05.349Z,43.10
2019-04-20T01:07:56.975Z,43.20
2019-04-20T01:10:02.668Z,43.20
2019-04-20T01:12:13.686Z,43.40
2019-04-20T01:14:13.925Z,43.50
2019-04-20T01:16:25.174Z,43.70
2019-04-20T01:18:20.978Z,43.80
2019-04-20T01:20:26.463Z,43.80
2019-04-20T01:22:35.308Z,43.80
2019-04-20T01:24:39.183Z,43.50
2019-04-20T01:26:44.595Z,43.60
2019-04-20T01:28:58.587Z,44.10
2019-04-20T01:31:00.186Z,44.10
2019-04-20T01:33:08.814Z,44.30
2019-04-20T01:35:10.034Z,44.10
2019-04-20T01:37:18.149Z,44.00
2019-04-20T01:39:19.750Z,43.70
2019-04-20T01:41:14.083Z,43.50
2019-04-20T01:43:18.444Z,43.60
2019-04-20T01:45:27.854Z,43.70
2019-04-20T01:47:32.080Z,44.00
2019-04-20T01:49:33.934Z,43.90
2019-04-20T01:51:47.006Z,44.00
2019-04-20T01:54:00.826Z,43.90
2019-04-20T01:56:05.447Z,43.90
2019-04-20T01:58:12.195Z,43.70
2019-04-20T02:00:21.074Z,43.90
2019-04-20T02:02:26.015Z,43.80
2019-04-20T02:04:40.649Z,43.90
2019-04-20T02:06:47.199Z,44.00
2019-04-20T02:08:49.858Z,44.00
2019-04-20T02:10:56.809Z,44.10
2019-04-20T02:13:01.138Z,44.10
2019-04-20T02:15:04.790Z,44.40
2019-04-20T02:17:19.403Z,44.70
2019-04-20T02:19:28.975Z,44.80
2019-04-20T02:21:34.040Z,44.50
2019-04-20T02:23:35.119Z,44.30
2019-04-20T02:25:26.962Z,44.70
2019-04-20T02:27:40.603Z,44.50
2019-04-20T02:30:02.803Z,44.50
2019-04-20T02:32:19.836Z,44.40
2019-04-20T02:34:29.212Z,44.70
2019-04-20T02:41:29.458Z,44.50
2019-04-20T02:45:27.143Z,44.30
2019-04-20T02:47:33.849Z,44.40
2019-04-20T02:49:45.419Z,44.60
2019-04-20T02:51:33.033Z,44.90
2019-04-20T02:53:41.451Z,44.60
2019-04-20T02:57:54.821Z,44.60
2019-04-20T03:01:45.107Z,44.70
2019-04-20T03:03:39.090Z,44.70
2019-04-20T03:05:46.083Z,44.80
2019-04-20T03:08:02.585Z,45.00
2019-04-20T03:10:05.510Z,45.20
2019-04-20T03:12:16.768Z,45.00
2019-04-20T03:14:16.420Z,44.90
2019-04-20T03:16:21.928Z,44.80
2019-04-20T03:18:26.530Z,45.30
2019-04-20T03:20:36.874Z,45.10
2019-04-20T03:23:02.406Z,45.10
2019-04-20T03:25:03.934Z,45.10
2019-04-20T03:26:55.752Z,44.70
2019-04-20T03:29:01.355Z,44.90
2019-04-20T03:33:30.914Z,45.10
2019-04-20T03:35:23.943Z,45.10
2019-04-20T03:37:34.584Z,45.10
2019-04-20T03:39:29.867Z,44.80
2019-04-20T03:41:24.487Z,45.00
2019-04-20T03:43:22.270Z,45.10
2019-04-20T03:45:28.123Z,45.30
2019-04-20T03:47:42.502Z,45.40
2019-04-20T03:50:03.317Z,45.20
2019-04-20T03:52:03.690Z,45.30
2019-04-20T03:54:19.665Z,45.60
2019-04-20T03:56:43.931Z,45.90
2019-04-20T03:58:47.367Z,45.60
2019-04-20T04:00:59.928Z,45.70
2019-04-20T04:03:20.015Z,45.70
2019-04-20T04:05:22.223Z,45.80
2019-04-20T04:07:15.355Z,46.20
2019-04-20T04:09:23.609Z,45.80
2019-04-20T04:11:35.125Z,45.80
2019-04-20T04:13:22.911Z,45.70
2019-04-20T04:15:27.542Z,45.60
2019-04-20T04:17:36.675Z,46.10
2019-04-20T04:19:39.706Z,46.50
2019-04-20T04:21:54.852Z,46.60
2019-04-20T04:24:02.457Z,46.60
2019-04-20T04:26:10.390Z,46.50
2019-04-20T04:28:10.773Z,46.70
2019-04-20T04:30:16.974Z,46.70
2019-04-20T04:32:50.085Z,46.60
2019-04-20T04:34:30.628Z,46.60
2019-04-20T04:36:30.132Z,46.60
2019-04-20T04:38:44.674Z,46.90
2019-04-20T04:40:55.697Z,46.60
2019-04-20T04:42:52.598Z,46.90
2019-04-20T04:44:46.450Z,46.90
2019-04-20T04:46:50.423Z,47.30
2019-04-20T04:48:48.267Z,47.20
2019-04-20T04:50:56.276Z,47.40
2019-04-20T04:53:04.673Z,47.60
2019-04-20T04:55:13.381Z,48.20
2019-04-20T04:57:05.470Z,47.60
2019-04-20T04:59:08.723Z,47.40
2019-04-20T05:01:18.493Z,47.40
2019-04-20T05:03:37.351Z,47.50
2019-04-20T05:05:49.144Z,47.10
2019-04-20T05:07:47.594Z,47.30
2019-04-20T05:09:39.835Z,47.50
2019-04-20T05:11:44.751Z,47.70
2019-04-20T05:13:54.640Z,48.00
2019-04-20T05:16:08.112Z,47.70
2019-04-20T05:18:20.650Z,47.60
2019-04-20T05:20:25.468Z,47.60
2019-04-20T05:22:30.915Z,47.70
2019-04-20T05:24:28.851Z,47.90
2019-04-20T05:26:53.366Z,48.60
2019-04-20T05:28:45.784Z,48.10
2019-04-20T05:30:46.897Z,47.90
2019-04-20T05:32:54.808Z,47.70
2019-04-20T05:35:18.009Z,48.10
2019-04-20T05:37:20.798Z,48.00
2019-04-20T05:39:26.817Z,48.40
2019-04-20T05:41:21.557Z,48.50
2019-04-20T05:43:41.488Z,48.40
2019-04-20T05:45:45.417Z,48.70
2019-04-20T05:47:52.464Z,49.00
2019-04-20T05:49:53.785Z,48.80
2019-04-20T05:52:22.547Z,48.50
2019-04-20T05:54:16.483Z,48.60
2019-04-20T05:56:17.323Z,48.50
2019-04-20T05:58:22.281Z,48.70
2019-04-20T06:00:39.004Z,48.90
2019-04-20T06:02:31.892Z,49.30
2019-04-20T06:04:58.747Z,49.20
2019-04-20T06:06:45.309Z,48.90
2019-04-20T06:08:58.014Z,48.80
2019-04-20T06:10:55.030Z,49.20
2019-04-20T06:13:00.252Z,48.80
2019-04-20T06:15:04.564Z,49.10
2019-04-20T06:17:21.062Z,49.20
2019-04-20T06:21:44.013Z,48.60
2019-04-20T06:23:53.450Z,48.40
2019-04-20T06:26:05.178Z,48.50
2019-04-20T06:27:56.905Z,48.50
2019-04-20T06:29:55.913Z,48.40
2019-04-20T06:32:10.866Z,48.50
2019-04-20T06:34:27.727Z,48.40
2019-04-20T06:36:27.603Z,48.40
2019-04-20T06:38:46.635Z,48.20
2019-04-20T06:40:46.873Z,48.30
2019-04-20T06:42:37.060Z,48.00
2019-04-20T06:44:57.626Z,47.70
2019-04-20T06:46:57.026Z,47.70
2019-04-20T06:48:51.655Z,48.00
2019-04-20T06:50:53.849Z,47.80
2019-04-20T06:53:14.416Z,47.10
2019-04-20T06:55:09.365Z,47.50
2019-04-20T06:57:18.381Z,47.40
2019-04-20T06:59:25.862Z,47.40
2019-04-20T07:01:26.197Z,47.20
2019-04-20T07:03:44.688Z,47.20
2019-04-20T07:05:43.957Z,48.00
2019-04-20T07:07:45.414Z,46.70
2019-04-20T07:09:59.849Z,46.80
2019-04-20T07:11:54.726Z,46.80
2019-04-20T07:13:48.239Z,46.90
2019-04-20T07:16:06.094Z,46.40
2019-04-20T07:18:15.700Z,45.70
2019-04-20T07:20:42.673Z,45.80
2019-04-20T07:22:46.543Z,45.60
2019-04-20T07:24:54.757Z,45.60
2019-04-20T07:26:55.932Z,45.60
2019-04-20T07:29:05.292Z,45.30
2019-04-20T07:31:01.939Z,44.70
2019-04-20T07:33:10.464Z,44.00
2019-04-20T07:35:17.184Z,43.90
2019-04-20T07:37:51.393Z,43.80
2019-04-20T07:39:28.079Z,43.70
2019-04-20T07:41:42.578Z,43.60
2019-04-20T07:43:43.571Z,43.30
2019-04-20T07:45:36.214Z,42.90
2019-04-20T07:47:53.787Z,42.90
2019-04-20T07:49:52.586Z,42.30
2019-04-20T07:51:40.643Z,42.30
2019-04-20T07:54:10.584Z,42.20
2019-04-20T07:56:04.935Z,42.00
2019-04-20T07:58:07.577Z,41.60
2019-04-20T08:00:16.317Z,41.60
2019-04-20T08:02:47.320Z,41.50
2019-04-20T08:04:46.252Z,42.10
2019-04-20T08:06:45.645Z,41.30
2019-04-20T08:08:58.633Z,41.20
2019-04-20T08:11:07.487Z,41.10
2019-04-20T08:13:18.232Z,40.70
2019-04-20T08:15:34.157Z,40.80
2019-04-20T08:17:31.222Z,40.40
2019-04-20T08:19:27.275Z,40.70
2019-04-20T08:21:38.806Z,40.40
2019-04-20T08:23:38.623Z,40.40
2019-04-20T08:25:36.089Z,40.30
2019-04-20T08:27:46.655Z,40.10
2019-04-20T08:30:09.186Z,39.70
2019-04-20T08:32:33.054Z,39.80
2019-04-20T08:34:31.261Z,39.60
2019-04-20T08:36:33.106Z,39.30
2019-04-20T08:40:43.593Z,39.40
2019-04-20T08:43:00.461Z,39.10
2019-04-20T08:45:01.140Z,39.10
2019-04-20T08:47:24.219Z,38.80
2019-04-20T08:49:12.926Z,38.70
2019-04-20T08:51:07.352Z,38.30
2019-04-20T08:53:20.746Z,38.50
2019-04-20T08:55:19.988Z,38.40
2019-04-20T08:57:05.085Z,38.40
2019-04-20T08:59:09.515Z,38.40
2019-04-20T09:01:20.069Z,38.30
2019-04-20T09:03:24.701Z,38.00
2019-04-20T09:05:34.980Z,37.70
2019-04-20T09:07:31.571Z,37.60
2019-04-20T09:09:56.435Z,37.10
2019-04-20T09:12:09.448Z,37.30
2019-04-20T09:13:50.322Z,37.20
2019-04-20T09:15:49.383Z,37.00
2019-04-20T09:17:59.482Z,36.80
2019-04-20T09:20:07.111Z,36.90
2019-04-20T09:22:33.154Z,36.50
2019-04-20T09:24:50.955Z,36.10
2019-04-20T09:26:50.559Z,36.20
2019-04-20T09:28:59.194Z,35.70
2019-04-20T09:31:15.319Z,35.80
2019-04-20T09:33:44.018Z,35.20
2019-04-20T09:35:43.290Z,34.90
2019-04-20T09:37:53.392Z,34.50
2019-04-20T09:40:09.358Z,34.40
2019-04-20T09:42:10.207Z,35.00
2019-04-20T09:44:13.583Z,33.90
2019-04-20T09:46:17.960Z,33.40
2019-04-20T09:48:31.788Z,33.40
2019-04-20T09:50:41.824Z,33.00
2019-04-20T09:52:49.020Z,32.40
2019-04-20T09:55:10.849Z,32.30
2019-04-20T09:57:22.646Z,31.60
2019-04-20T09:59:26.679Z,32.20
2019-04-20T10:01:24.097Z,32.10
2019-04-20T10:03:16.506Z,31.10
2019-04-20T10:05:20.038Z,30.50
2019-04-20T10:07:26.210Z,30.30
2019-04-20T10:09:34.670Z,30.40
2019-04-20T10:11:33.337Z,30.20
2019-04-20T10:13:36.594Z,30.10
2019-04-20T10:15:39.841Z,29.50
2019-04-20T10:17:43.672Z,29.20
2019-04-20T10:19:48.223Z,29.20
2019-04-20T10:21:52.860Z,29.40
2019-04-20T10:23:56.613Z,29.10
2019-04-20T10:26:00.676Z,29.10
2019-04-20T10:28:05.423Z,29.10
2019-04-20T10:30:10.309Z,29.20
2019-04-20T10:32:15.818Z,28.90
2019-04-20T10:34:22.091Z,29.10
2019-04-20T10:36:25.744Z,28.70
2019-04-20T10:38:33.965Z,28.70
2019-04-20T10:40:49.600Z,28.60
2019-04-20T10:42:41.834Z,28.60
2019-04-20T10:44:45.313Z,28.30
2019-04-20T10:46:49.164Z,28.50
2019-04-20T10:48:54.268Z,28.60
2019-04-20T10:50:58.856Z,28.60
2019-04-20T10:53:03.636Z,28.50
2019-04-20T10:55:08.365Z,28.30
2019-04-20T10:57:13.241Z,27.80
2019-04-20T10:59:16.698Z,27.40
2019-04-20T11:01:20.062Z,27.00
2019-04-20T11:03:24.741Z,27.90
2019-04-20T11:05:28.615Z,27.80
2019-04-20T11:07:32.560Z,27.40
2019-04-20T11:09:36.639Z,27.00
2019-04-20T11:11:40.702Z,26.70
2019-04-20T11:13:45.520Z,26.50
2019-04-20T11:15:50.444Z,26.40
2019-04-20T11:17:55.291Z,26.00
2019-04-20T11:19:59.164Z,26.20
2019-04-20T11:22:02.609Z,26.20
2019-04-20T11:24:05.873Z,25.90
2019-04-20T11:26:10.422Z,26.00
2019-04-20T11:28:14.359Z,24.60
2019-04-20T11:30:18.206Z,24.80
2019-04-20T11:32:22.201Z,24.70
2019-04-20T11:34:31.590Z,25.00
2019-04-20T11:36:31.021Z,24.70
2019-04-20T11:38:35.191Z,24.60
2019-04-20T11:40:39.184Z,25.20
2019-04-20T11:42:43.769Z,25.10
2019-04-20T11:44:47.154Z,25.30
2019-04-20T11:46:50.414Z,25.20
2019-04-20T11:48:55.198Z,25.20
2019-04-20T11:50:58.757Z,24.70
2019-04-20T11:53:02.280Z,23.80
2019-04-20T11:55:08.872Z,24.40
2019-04-20T11:57:13.264Z,24.70
2019-04-20T11:59:16.980Z,24.20
2019-04-20T12:01:35.168Z,23.70
2019-04-20T12:03:45.948Z,24.00
2019-04-20T12:05:44.430Z,24.00
2019-04-20T12:07:53.177Z,24.50
2019-04-20T12:09:58.492Z,24.00
2019-04-20T12:12:11.068Z,23.90
2019-04-20T12:14:06.922Z,23.10
2019-04-20T12:16:10.317Z,23.90
2019-04-20T12:18:13.846Z,24.10
2019-04-20T12:20:17.064Z,23.90
2019-04-20T12:22:21.503Z,23.30
2019-04-20T12:24:24.871Z,23.20
2019-04-20T12:26:29.016Z,23.10
2019-04-20T12:28:33.617Z,24.50
2019-04-20T12:30:37.644Z,23.90
2019-04-20T12:32:45.394Z,23.50
2019-04-20T12:34:47.410Z,23.60
2019-04-20T12:36:51.163Z,23.50
2019-04-20T12:38:55.011Z,23.20
2019-04-20T12:41:01.358Z,23.50
2019-04-20T12:43:04.773Z,23.00
2019-04-20T12:45:09.789Z,22.30
2019-04-20T12:47:14.091Z,22.40
2019-04-20T12:49:17.971Z,22.10
2019-04-20T12:51:25.191Z,22.30
2019-04-20T12:53:26.578Z,23.00
2019-04-20T12:55:30.558Z,23.10
2019-04-20T12:57:34.460Z,23.00
2019-04-20T12:59:37.730Z,22.30
2019-04-20T13:01:43.615Z,22.40
2019-04-20T13:03:47.698Z,22.20
2019-04-20T13:05:52.023Z,22.10
2019-04-20T13:07:58.981Z,23.10
2019-04-20T13:10:02.210Z,21.80
2019-04-20T13:12:13.872Z,22.00
2019-04-20T13:14:44.375Z,21.80
2019-04-20T13:16:50.216Z,21.40
2019-04-20T13:18:57.443Z,21.50
2019-04-20T13:21:01.767Z,21.20
2019-04-20T13:23:07.384Z,21.90
2019-04-20T13:25:10.814Z,22.40
2019-04-20T13:27:14.393Z,22.90
2019-04-20T13:29:19.145Z,21.50
2019-04-20T13:31:23.858Z,22.80
2019-04-20T13:33:27.486Z,21.10
2019-04-20T13:35:32.000Z,21.00
2019-04-20T13:37:38.121Z,20.70
2019-04-20T13:39:40.792Z,21.90
2019-04-20T13:41:56.138Z,21.70
2019-04-20T13:43:50.274Z,21.40
2019-04-20T13:45:53.630Z,22.50
2019-04-20T13:47:57.077Z,21.60
2019-04-20T13:50:01.112Z,21.90
2019-04-20T13:52:04.695Z,21.30
2019-04-20T13:54:13.848Z,22.30
2019-04-20T13:56:14.053Z,21.90
2019-04-20T13:58:35.940Z,21.10
2019-04-20T14:01:01.005Z,21.20
2019-04-20T14:03:12.178Z,21.00
2019-04-20T14:05:17.121Z,21.00
2019-04-20T14:07:21.903Z,21.40
2019-04-20T14:09:25.584Z,21.80
2019-04-20T14:11:29.397Z,21.10
2019-04-20T14:13:38.984Z,21.60
2019-04-20T14:15:37.626Z,20.50
2019-04-20T14:17:41.364Z,20.90
2019-04-20T14:19:45.232Z,21.70
2019-04-20T14:21:48.554Z,21.00
2019-04-20T14:23:53.039Z,21.70
2019-04-20T14:25:56.707Z,21.40
2019-04-20T14:28:00.724Z,21.10
2019-04-20T14:30:04.950Z,21.50
2019-04-20T14:32:10.286Z,20.50
2019-04-20T14:34:13.160Z,20.50
2019-04-20T14:36:16.943Z,20.70
2019-04-20T14:38:20.368Z,20.00
2019-04-20T14:40:24.125Z,20.20
2019-04-20T14:42:36.450Z,19.80
2019-04-20T14:44:32.507Z,20.10
2019-04-20T14:46:35.947Z,20.00
2019-04-20T14:48:40.587Z,20.40
2019-04-20T14:50:44.058Z,20.10
2019-04-20T14:52:47.338Z,20.00
2019-04-20T14:54:50.605Z,20.50
2019-04-20T14:56:53.951Z,19.80
2019-04-20T14:59:01.925Z,19.80
2019-04-20T15:01:06.887Z,19.70
2019-04-20T15:03:28.207Z,19.70
2019-04-20T15:05:32.857Z,19.60
2019-04-20T15:07:36.525Z,19.60
2019-04-20T15:09:40.643Z,20.20
2019-04-20T15:11:45.123Z,19.90
2019-04-20T15:13:49.079Z,20.30
2019-04-20T15:15:52.728Z,20.00
2019-04-20T15:17:57.807Z,20.00
2019-04-20T15:20:03.534Z,20.20
2019-04-20T15:22:25.421Z,20.00
2019-04-20T15:24:29.380Z,19.20
2019-04-20T15:26:34.145Z,19.70
2019-04-20T15:28:38.628Z,19.60
2019-04-20T15:30:42.492Z,19.30
2019-04-20T15:32:47.039Z,19.60
2019-04-20T15:34:50.922Z,19.10
2019-04-20T15:36:54.557Z,19.10
2019-04-20T15:38:59.020Z,19.70
2019-04-20T15:41:03.017Z,19.80
2019-04-20T15:43:12.412Z,19.40
2019-04-20T15:45:11.519Z,19.30
2019-04-20T15:47:15.342Z,19.90
2019-04-20T15:49:19.882Z,19.40
2019-04-20T15:51:23.712Z,19.30
2019-04-20T15:53:27.124Z,19.20
2019-04-20T15:55:37.429Z,19.30
2019-04-20T15:57:36.662Z,18.80
2019-04-20T15:59:40.293Z,18.90
2019-04-20T16:01:45.260Z,19.30
2019-04-20T16:03:51.084Z,19.30
2019-04-20T16:06:05.368Z,19.00
2019-04-20T16:08:26.002Z,19.00
2019-04-20T16:10:30.719Z,19.40
2019-04-20T16:12:35.159Z,19.30
2019-04-20T16:14:39.523Z,19.60
2019-04-20T16:16:44.393Z,19.20
2019-04-20T16:18:48.585Z,18.90
2019-04-20T16:21:00.460Z,18.40
2019-04-20T16:22:58.548Z,18.50
2019-04-20T16:25:15.406Z,18.90
2019-04-20T16:27:29.690Z,19.20
2019-04-20T16:29:33.543Z,18.80
2019-04-20T16:31:38.271Z,18.90
2019-04-20T16:33:42.223Z,19.10
2019-04-20T16:35:46.759Z,19.10
2019-04-20T16:37:50.766Z,19.20
2019-04-20T16:39:54.627Z,19.50
2019-04-20T16:41:58.345Z,19.60
2019-04-20T16:44:02.908Z,19.60
2019-04-20T16:46:06.538Z,19.60
2019-04-20T16:48:10.507Z,20.30
2019-04-20T16:50:15.001Z,19.40
2019-04-20T16:52:19.038Z,20.20
2019-04-20T16:54:23.677Z,20.00
2019-04-20T16:56:27.069Z,19.80
2019-04-20T16:58:31.432Z,19.80
2019-04-20T17:00:35.692Z,20.50
2019-04-20T17:02:40.366Z,20.70
2019-04-20T17:04:45.041Z,20.50
2019-04-20T17:06:53.970Z,20.70
2019-04-20T17:08:58.714Z,20.90
2019-04-20T17:11:03.370Z,21.00
2019-04-20T17:13:06.826Z,21.30
2019-04-20T17:15:10.160Z,21.40
2019-04-20T17:17:13.554Z,21.70
2019-04-20T17:19:17.637Z,21.70
2019-04-20T17:21:25.249Z,21.90
2019-04-20T17:23:25.996Z,22.40
2019-04-20T17:25:30.090Z,22.50
2019-04-20T17:27:52.992Z,22.70
2019-04-20T17:29:59.020Z,22.90
2019-04-20T17:32:08.034Z,23.10
2019-04-20T17:34:29.879Z,23.10
2019-04-20T17:36:21.535Z,23.20
2019-04-20T17:38:22.603Z,23.50
2019-04-20T17:40:48.803Z,23.60
2019-04-20T17:42:46.208Z,24.20
2019-04-20T17:44:49.308Z,24.00
2019-04-20T17:46:58.255Z,24.00
2019-04-20T17:49:07.323Z,24.40
2019-04-20T17:51:12.244Z,24.70
2019-04-20T17:53:14.818Z,25.00
2019-04-20T17:55:24.571Z,25.40
2019-04-20T17:57:19.499Z,25.20
2019-04-20T17:59:24.171Z,25.80
2019-04-20T18:01:40.996Z,25.90
2019-04-20T18:04:16.700Z,26.40
2019-04-20T18:06:09.497Z,26.60
2019-04-20T18:08:15.428Z,26.80
2019-04-20T18:10:18.856Z,27.00
2019-04-20T18:12:06.229Z,27.50
2019-04-20T18:14:24.250Z,27.40
2019-04-20T18:16:40.289Z,27.60
2019-04-20T18:18:42.077Z,27.60
2019-04-20T18:20:43.150Z,28.40
2019-04-20T18:22:50.468Z,28.30
2019-04-20T18:25:17.431Z,28.00
2019-04-20T18:27:22.451Z,28.20
2019-04-20T18:29:19.951Z,28.10
2019-04-20T18:31:26.464Z,28.20
2019-04-20T18:33:33.981Z,28.40
2019-04-20T18:35:41.238Z,28.50
2019-04-20T18:37:45.356Z,28.80
2019-04-20T18:39:53.417Z,28.80
2019-04-20T18:41:55.473Z,29.30
2019-04-20T18:43:59.013Z,29.30
2019-04-20T18:46:17.173Z,29.30
2019-04-20T18:48:24.500Z,29.40
2019-04-20T18:50:19.483Z,29.80
2019-04-20T18:52:17.822Z,29.60
2019-04-20T18:54:26.032Z,29.70
2019-04-20T18:56:32.362Z,29.20
2019-04-20T18:58:31.271Z,29.50
2019-04-20T19:00:40.903Z,29.90
2019-04-20T19:02:43.467Z,30.20
2019-04-20T19:04:45.779Z,30.00
2019-04-20T19:06:50.013Z,30.20
2019-04-20T19:08:55.142Z,30.00
2019-04-20T19:11:04.150Z,30.80
2019-04-20T19:13:23.476Z,30.60
2019-04-20T19:15:48.173Z,30.60
2019-04-20T19:17:49.300Z,30.60
2019-04-20T19:19:57.892Z,30.40
2019-04-20T19:21:59.540Z,30.50
2019-04-20T19:24:09.213Z,31.00
2019-04-20T19:26:13.809Z,31.50
2019-04-20T19:28:14.425Z,31.30
2019-04-20T19:30:27.542Z,31.70
2019-04-20T19:32:36.016Z,31.70
2019-04-20T19:34:41.798Z,31.90
2019-04-20T19:36:38.895Z,31.90
2019-04-20T19:38:52.281Z,32.00
2019-04-20T19:40:52.783Z,32.30
2019-04-20T19:43:02.428Z,32.30
2019-04-20T19:45:16.853Z,32.50
2019-04-20T19:47:19.069Z,32.60
2019-04-20T19:49:19.596Z,32.40
2019-04-20T19:51:31.020Z,32.40
2019-04-20T19:53:30.542Z,32.20
2019-04-20T19:55:31.685Z,32.10
2019-04-20T19:57:42.795Z,32.10
2019-04-20T19:59:35.623Z,32.50
2019-04-20T20:01:33.750Z,33.50
2019-04-20T20:03:37.625Z,32.80
2019-04-20T20:05:46.230Z,32.90
2019-04-20T20:07:52.492Z,33.30
2019-04-20T20:09:56.625Z,32.80
2019-04-20T20:12:03.721Z,32.90
2019-04-20T20:14:05.909Z,32.50
2019-04-20T20:16:15.959Z,32.50
2019-04-20T20:18:30.385Z,33.10
2019-04-20T20:20:35.891Z,32.80
2019-04-20T20:22:31.979Z,33.10
2019-04-20T20:24:29.084Z,32.90
2019-04-20T20:26:36.995Z,33.40
2019-04-20T20:28:45.547Z,33.60
2019-04-20T20:30:56.810Z,33.40
2019-04-20T20:33:05.982Z,33.40
2019-04-20T20:35:04.454Z,33.70
2019-04-20T20:37:03.199Z,33.90
2019-04-20T20:39:12.996Z,34.40
2019-04-20T20:41:19.453Z,34.20
2019-04-20T20:43:22.943Z,33.80
2019-04-20T20:45:26.069Z,34.40
2019-04-20T20:47:50.623Z,34.60
2019-04-20T20:49:53.663Z,34.50
2019-04-20T20:51:54.596Z,34.10
2019-04-20T20:53:51.206Z,34.50
2019-04-20T20:55:47.969Z,34.90
2019-04-20T20:58:01.061Z,34.80
2019-04-20T21:00:02.179Z,34.50
2019-04-20T21:02:06.485Z,34.60
2019-04-20T21:04:04.822Z,34.90
2019-04-20T21:06:09.575Z,35.20
2019-04-20T21:08:13.544Z,34.90
2019-04-20T21:10:27.764Z,34.90
2019-04-20T21:12:23.437Z,35.10
2019-04-20T21:14:31.142Z,34.80
2019-04-20T21:16:36.720Z,35.00
2019-04-20T21:18:59.082Z,34.80
2019-04-20T21:21:00.405Z,35.10
2019-04-20T21:23:02.368Z,35.10
2019-04-20T21:24:54.949Z,36.40
2019-04-20T21:27:02.829Z,35.40
2019-04-20T21:29:03.839Z,35.80
2019-04-20T21:31:13.680Z,35.80
2019-04-20T21:33:13.282Z,36.10
2019-04-20T21:35:17.790Z,35.90
2019-04-20T21:37:23.950Z,35.90
2019-04-20T21:39:37.146Z,35.80
2019-04-20T21:41:31.163Z,36.10
2019-04-20T21:43:38.762Z,35.90
2019-04-20T21:45:47.871Z,36.30
2019-04-20T21:47:46.394Z,36.50
2019-04-20T21:49:57.762Z,37.00
2019-04-20T21:52:00.849Z,36.70
2019-04-20T21:54:01.239Z,36.70
2019-04-20T21:56:05.884Z,36.70
2019-04-20T21:58:10.349Z,36.60
2019-04-20T22:00:25.097Z,36.90
2019-04-20T22:02:25.429Z,36.60
2019-04-20T22:04:25.431Z,36.50
2019-04-20T22:06:28.672Z,37.30
2019-04-20T22:08:32.678Z,36.50
2019-04-20T22:10:36.631Z,36.40
2019-04-20T22:12:47.575Z,36.10
2019-04-20T22:14:48.704Z,36.10
2019-04-20T22:16:53.307Z,35.90
2019-04-20T22:19:14.601Z,35.30
2019-04-20T22:21:12.210Z,34.90
2019-04-20T22:23:16.820Z,35.20
2019-04-20T22:25:29.567Z,35.60
2019-04-20T22:27:21.080Z,35.30
2019-04-20T22:29:21.423Z,35.00
2019-04-20T22:31:26.279Z,34.70
2019-04-20T22:33:35.025Z,34.50
2019-04-20T22:35:44.393Z,34.50
2019-04-20T22:37:53.197Z,34.80
2019-04-20T22:39:56.349Z,34.60
2019-04-20T22:42:05.622Z,34.50
2019-04-20T22:44:11.851Z,34.90
2019-04-20T22:46:09.560Z,34.70
2019-04-20T22:48:16.250Z,34.70
2019-04-20T22:50:36.222Z,34.60
2019-04-20T22:52:39.759Z,34.60
2019-04-20T22:54:46.713Z,34.80
2019-04-20T22:56:46.959Z,35.00
2019-04-20T22:58:49.985Z,35.00
2019-04-20T23:00:50.157Z,35.20
2019-04-20T23:02:49.123Z,35.00
2019-04-20T23:04:53.111Z,34.90
2019-04-20T23:06:57.301Z,35.30
2019-04-20T23:09:04.795Z,35.40
2019-04-20T23:11:14.819Z,35.20
2019-04-20T23:13:13.635Z,35.10
2019-04-20T23:15:18.354Z,35.30
2019-04-20T23:17:28.350Z,36.10
2019-04-20T23:19:35.201Z,35.80
2019-04-20T23:21:32.183Z,36.10
2019-04-20T23:23:35.641Z,36.30
2019-04-20T23:25:39.055Z,36.00
2019-04-20T23:27:43.692Z,36.00
2019-04-20T23:29:47.083Z,35.70
2019-04-20T23:31:55.672Z,35.80
2019-04-20T23:33:56.150Z,36.00
2019-04-20T23:36:02.766Z,36.20
2019-04-20T23:38:11.120Z,35.70
2019-04-20T23:40:12.787Z,36.30
2019-04-20T23:42:19.883Z,36.60
2019-04-20T23:44:31.531Z,36.60
2019-04-20T23:46:43.298Z,36.50
2019-04-20T23:48:48.361Z,36.50
2019-04-20T23:51:08.724Z,36.60
2019-04-20T23:53:14.196Z,36.90
2019-04-20T23:55:06.005Z,37.10
2019-04-20T23:57:07.996Z,37.00
2019-04-20T23:59:12.772Z,37.00
